Suomigracht — PHBT — position and weather

sailwx.info

Track history (hours):
 
Tides and Currents Weather Stations Pressure Air Temp Water Temp Dewpoint Dewpoint Depression Visibility Wind Speed Wind Dir Waves Ship Positions

Suomigracht

Last reported at 2019-May-15 17:02 UTC. Time now 2019-May-24 00:50 UTC.
Position N 26°33' W 079°43'.
Warning: this ship's position is 8 days out of date.

Length 173 m; beam 26 m.

Type: Ship (hazmat cat A). MMSI: 246100000.

Date/timePositionNaut miles runAvg speedWind from/ knotsBaromVisibWave heightAir tempDewpointWater temp
2019-May-15 17:02N 26°33' W 079°43'015.7
2019-May-15 17:01N 26°33' W 079°43'815.8
2019-May-15 16:30N 26°25' W 079°45'815.9
2019-May-15 16:00N 26°17' W 079°46'815.9
2019-May-15 15:30N 26°09' W 079°47'815.7
2019-May-15 15:00N 26°02' W 079°49'816.3
2019-May-15 14:30N 25°53' W 079°50'816.3
2019-May-15 14:00N 25°45' W 079°51'816.2
2019-May-15 13:30N 25°37' W 079°52'816.2
2019-May-15 13:00N 25°29' W 079°54'816.2
2019-May-15 12:30N 25°21' W 079°56'  
2019-May-12 18:19N 29°21' W 094°46'310.6
2019-May-12 18:00N 29°23' W 094°49'611.4
2019-May-12 17:30N 29°28' W 094°51'612.6
2019-May-12 17:00N 29°34' W 094°55'3 6.1
2019-May-12 16:30N 29°36' W 094°57'2 4.8
2019-May-12 16:00N 29°39' W 094°58'3 5.1
2019-May-12 15:30N 29°41' W 094°59'3 5.1
2019-May-12 15:00N 29°42' W 095°01'3 5.9
2019-May-12 14:30N 29°45' W 095°04'2 4.5
2019-May-12 13:59N 29°45' W 095°06'0 0.1
2019-May-12 13:30N 29°45' W 095°06'0 0.0
2019-May-12 11:26N 29°45' W 095°06'0 0.0
2019-May-12 10:11N 29°45' W 095°06'0 0.0
2019-May-12 07:50N 29°45' W 095°06'0 0.0
2019-May-12 07:14N 29°45' W 095°06'0 0.0
2019-May-12 06:47N 29°45' W 095°06'0 0.0
2019-May-12 05:44N 29°45' W 095°06'0 0.0
2019-May-12 05:17N 29°45' W 095°06'0 0.0
2019-May-10 01:30N 29°45' W 095°06'0 0.0
2019-May-09 23:06N 29°45' W 095°06'0 0.0
2019-May-09 22:03N 29°45' W 095°06'0 0.0
2019-May-09 21:48N 29°45' W 095°06'0 0.0
2019-May-09 21:03N 29°45' W 095°06'0 0.0
2019-May-09 20:51N 29°45' W 095°06'0 0.0
2019-May-09 20:27N 29°45' W 095°06'0 0.0
2019-May-09 18:24N 29°45' W 095°06'1 1.4
2019-May-09 18:00N 29°45' W 095°06'2 4.0
2019-May-09 17:29N 29°45' W 095°04'3 6.9
2019-May-09 17:00N 29°42' W 095°01'5 9.5
2019-May-09 16:30N 29°38' W 094°58'611.0
2019-May-09 16:00N 29°33' W 094°55'611.6
2019-May-09 15:29N 29°28' W 094°51'714.2
2019-May-09 15:00N 29°22' W 094°48'815.6
2019-May-09 14:30N 29°19' W 094°39'4914.3
2019-May-09 11:06N 28°52' W 093°54'1417.4
2019-May-09 10:19N 28°44' W 093°41'1017.3
2019-May-09 09:43N 28°38' W 093°31'517.6
2019-May-09 09:25N 28°35' W 093°27'2317.9
2019-May-09 08:07N 28°21' W 093°05'217.8
2019-May-09 08:00N 28°20' W 093°03'72515.2
2019-May-07 08:28N 25°23' W 079°55'613.9
2019-May-07 08:00N 25°30' W 079°56'713.9
2019-May-07 07:30N 25°37' W 079°56'713.9
2019-May-07 07:00N 25°43' W 079°56'713.7
2019-May-07 06:30N 25°50' W 079°57'714.0
2019-May-07 06:00N 25°57' W 079°57'714.6
2019-May-07 05:30N 26°05' W 079°58'714.4
2019-May-07 05:00N 26°12' W 079°57'714.5
2019-May-07 04:30N 26°19' W 079°57'815.0
2019-May-07 04:00N 26°27' W 079°57'815.5
2019-May-07 03:30N 26°34' W 079°57'714.9
2019-May-07 03:00N 26°42' W 079°57'510.9
2019-May-07 02:31N 26°46' W 080°01'2 4.3
2019-May-07 01:59N 26°46' W 080°03'0 0.0
2019-May-07 01:30N 26°46' W 080°03'0 0.0
2019-May-06 20:41N 26°46' W 080°03'0 0.0
2019-May-06 20:05N 26°46' W 080°03'0 0.0
2019-May-06 18:41N 26°46' W 080°03'0 0.1
2019-May-06 14:48N 26°46' W 080°03'2 5.8
2019-May-06 14:26N 26°47' W 080°01'611.3
2019-May-06 13:57N 26°50' W 079°56'713.4
2019-May-06 13:27N 26°55' W 079°51'  
Track history (hours):
 
Tides and Currents Weather Stations Pressure Air Temp Water Temp Dewpoint Dewpoint Depression Visibility Wind Speed Wind Dir Waves Ship Positions

Suomigracht

Last reported at 2019-May-15 17:02 UTC. Time now 2019-May-24 00:50 UTC.
Position N 26°33' W 079°43'.
Warning: this ship's position is 8 days out of date.

Length 173 m; beam 26 m.

Type: Ship (hazmat cat A). MMSI: 246100000.

Date/timePositionNaut miles runAvg speedWind from/ knotsBaromVisibWave heightAir tempDewpointWater temp
2019-May-15 17:02N 26°33' W 079°43'015.7
2019-May-15 17:01N 26°33' W 079°43'815.8
2019-May-15 16:30N 26°25' W 079°45'815.9
2019-May-15 16:00N 26°17' W 079°46'815.9
2019-May-15 15:30N 26°09' W 079°47'815.7
2019-May-15 15:00N 26°02' W 079°49'816.3
2019-May-15 14:30N 25°53' W 079°50'816.3
2019-May-15 14:00N 25°45' W 079°51'816.2
2019-May-15 13:30N 25°37' W 079°52'816.2
2019-May-15 13:00N 25°29' W 079°54'816.2
2019-May-15 12:30N 25°21' W 079°56'  
2019-May-12 18:19N 29°21' W 094°46'310.6
2019-May-12 18:00N 29°23' W 094°49'611.4
2019-May-12 17:30N 29°28' W 094°51'612.6
2019-May-12 17:00N 29°34' W 094°55'3 6.1
2019-May-12 16:30N 29°36' W 094°57'2 4.8
2019-May-12 16:00N 29°39' W 094°58'3 5.1
2019-May-12 15:30N 29°41' W 094°59'3 5.1
2019-May-12 15:00N 29°42' W 095°01'3 5.9
2019-May-12 14:30N 29°45' W 095°04'2 4.5
2019-May-12 13:59N 29°45' W 095°06'0 0.1
2019-May-12 13:30N 29°45' W 095°06'0 0.0
2019-May-12 11:26N 29°45' W 095°06'0 0.0
2019-May-12 10:11N 29°45' W 095°06'0 0.0
2019-May-12 07:50N 29°45' W 095°06'0 0.0
2019-May-12 07:14N 29°45' W 095°06'0 0.0
2019-May-12 06:47N 29°45' W 095°06'0 0.0
2019-May-12 05:44N 29°45' W 095°06'0 0.0
2019-May-12 05:17N 29°45' W 095°06'0 0.0
2019-May-10 01:30N 29°45' W 095°06'0 0.0
2019-May-09 23:06N 29°45' W 095°06'0 0.0
2019-May-09 22:03N 29°45' W 095°06'0 0.0
2019-May-09 21:48N 29°45' W 095°06'0 0.0
2019-May-09 21:03N 29°45' W 095°06'0 0.0
2019-May-09 20:51N 29°45' W 095°06'0 0.0
2019-May-09 20:27N 29°45' W 095°06'0 0.0
2019-May-09 18:24N 29°45' W 095°06'1 1.4
2019-May-09 18:00N 29°45' W 095°06'2 4.0
2019-May-09 17:29N 29°45' W 095°04'3 6.9
2019-May-09 17:00N 29°42' W 095°01'5 9.5
2019-May-09 16:30N 29°38' W 094°58'611.0
2019-May-09 16:00N 29°33' W 094°55'611.6
2019-May-09 15:29N 29°28' W 094°51'714.2
2019-May-09 15:00N 29°22' W 094°48'815.6
2019-May-09 14:30N 29°19' W 094°39'4914.3
2019-May-09 11:06N 28°52' W 093°54'1417.4
2019-May-09 10:19N 28°44' W 093°41'1017.3
2019-May-09 09:43N 28°38' W 093°31'517.6
2019-May-09 09:25N 28°35' W 093°27'2317.9
2019-May-09 08:07N 28°21' W 093°05'217.8
2019-May-09 08:00N 28°20' W 093°03'72515.2
2019-May-07 08:28N 25°23' W 079°55'613.9
2019-May-07 08:00N 25°30' W 079°56'713.9
2019-May-07 07:30N 25°37' W 079°56'713.9
2019-May-07 07:00N 25°43' W 079°56'713.7
2019-May-07 06:30N 25°50' W 079°57'714.0
2019-May-07 06:00N 25°57' W 079°57'714.6
2019-May-07 05:30N 26°05' W 079°58'714.4
2019-May-07 05:00N 26°12' W 079°57'714.5
2019-May-07 04:30N 26°19' W 079°57'815.0
2019-May-07 04:00N 26°27' W 079°57'815.5
2019-May-07 03:30N 26°34' W 079°57'714.9
2019-May-07 03:00N 26°42' W 079°57'510.9
2019-May-07 02:31N 26°46' W 080°01'2 4.3
2019-May-07 01:59N 26°46' W 080°03'0 0.0
2019-May-07 01:30N 26°46' W 080°03'0 0.0
2019-May-06 20:41N 26°46' W 080°03'0 0.0
2019-May-06 20:05N 26°46' W 080°03'0 0.0
2019-May-06 18:41N 26°46' W 080°03'0 0.1
2019-May-06 14:48N 26°46' W 080°03'2 5.8
2019-May-06 14:26N 26°47' W 080°01'611.3
2019-May-06 13:57N 26°50' W 079°56'713.4
2019-May-06 13:27N 26°55' W 079°51'  

Dump ship's entire track history